sensor_id;sensor_type;location;lat;lon;timestamp;pressure;altitude;pressure_sealevel;temperature;humidity
54666;BME280;40566;50.006;36.180;2023-04-26T00:03:27;98956.75;;;10.01;70.78
54666;BME280;40566;50.006;36.180;2023-04-26T00:08:27;98956.81;;;9.99;70.83
54666;BME280;40566;50.006;36.180;2023-04-26T00:13:28;98969.13;;;9.92;70.98
54666;BME280;40566;50.006;36.180;2023-04-26T00:18:29;98972.47;;;9.95;70.71
54666;BME280;40566;50.006;36.180;2023-04-26T00:23:30;98967.44;;;9.91;70.80
54666;BME280;40566;50.006;36.180;2023-04-26T00:28:31;98974.56;;;9.85;70.94
54666;BME280;40566;50.006;36.180;2023-04-26T00:33:31;98973.91;;;9.80;71.01
54666;BME280;40566;50.006;36.180;2023-04-26T00:38:32;98980.75;;;9.81;70.97
54666;BME280;40566;50.006;36.180;2023-04-26T00:43:33;98975.72;;;9.78;70.99
54666;BME280;40566;50.006;36.180;2023-04-26T00:48:35;98962.00;;;9.76;71.10
54666;BME280;40566;50.006;36.180;2023-04-26T00:53:36;98973.97;;;9.78;70.58
54666;BME280;40566;50.006;36.180;2023-04-26T00:58:37;98978.28;;;9.78;70.38
54666;BME280;40566;50.006;36.180;2023-04-26T01:03:38;98974.34;;;9.67;70.58
54666;BME280;40566;50.006;36.180;2023-04-26T01:08:38;98985.03;;;9.58;71.01
54666;BME280;40566;50.006;36.180;2023-04-26T01:13:40;98967.00;;;9.57;71.11
54666;BME280;40566;50.006;36.180;2023-04-26T01:18:41;98986.75;;;9.58;71.19
54666;BME280;40566;50.006;36.180;2023-04-26T01:23:42;98996.28;;;9.56;71.29
54666;BME280;40566;50.006;36.180;2023-04-26T01:28:43;98993.69;;;9.56;71.47
54666;BME280;40566;50.006;36.180;2023-04-26T01:33:43;98991.13;;;9.56;71.36
54666;BME280;40566;50.006;36.180;2023-04-26T01:38:44;98989.63;;;9.50;71.52
54666;BME280;40566;50.006;36.180;2023-04-26T01:43:44;98992.34;;;9.45;71.78
54666;BME280;40566;50.006;36.180;2023-04-26T01:48:45;98992.56;;;9.39;71.92
54666;BME280;40566;50.006;36.180;2023-04-26T01:53:45;98985.03;;;9.33;72.07
54666;BME280;40566;50.006;36.180;2023-04-26T01:58:46;98992.09;;;9.28;72.50
54666;BME280;40566;50.006;36.180;2023-04-26T02:03:46;99001.47;;;9.30;72.27
54666;BME280;40566;50.006;36.180;2023-04-26T02:08:48;98991.22;;;9.29;72.37
54666;BME280;40566;50.006;36.180;2023-04-26T02:13:49;98991.22;;;9.29;72.33
54666;BME280;40566;50.006;36.180;2023-04-26T02:18:49;98998.78;;;9.33;72.15
54666;BME280;40566;50.006;36.180;2023-04-26T02:23:50;98987.63;;;9.33;72.01
54666;BME280;40566;50.006;36.180;2023-04-26T02:28:50;98999.53;;;9.37;71.85
54666;BME280;40566;50.006;36.180;2023-04-26T02:33:51;99006.31;;;9.40;71.73
54666;BME280;40566;50.006;36.180;2023-04-26T02:38:51;99017.53;;;9.39;71.76
54666;BME280;40566;50.006;36.180;2023-04-26T02:43:52;99014.00;;;9.41;71.53
54666;BME280;40566;50.006;36.180;2023-04-26T02:48:52;99020.91;;;9.41;71.57
54666;BME280;40566;50.006;36.180;2023-04-26T02:53:53;99022.66;;;9.40;71.61
54666;BME280;40566;50.006;36.180;2023-04-26T02:58:54;99019.28;;;9.38;71.84
54666;BME280;40566;50.006;36.180;2023-04-26T03:03:54;99029.88;;;9.30;72.16
54666;BME280;40566;50.006;36.180;2023-04-26T03:08:55;99031.00;;;9.22;72.66
54666;BME280;40566;50.006;36.180;2023-04-26T03:13:55;99045.41;;;9.29;72.65
54666;BME280;40566;50.006;36.180;2023-04-26T03:18:56;99041.13;;;9.28;72.62
54666;BME280;40566;50.006;36.180;2023-04-26T03:23:57;99046.09;;;9.34;72.61
54666;BME280;40566;50.006;36.180;2023-04-26T03:28:59;99055.16;;;9.46;72.48
54666;BME280;40566;50.006;36.180;2023-04-26T03:34:00;99068.75;;;9.51;72.41
54666;BME280;40566;50.006;36.180;2023-04-26T03:39:00;99067.59;;;9.60;72.46
54666;BME280;40566;50.006;36.180;2023-04-26T03:44:01;99060.28;;;9.71;72.36
54666;BME280;40566;50.006;36.180;2023-04-26T03:49:02;99070.31;;;9.80;72.12
54666;BME280;40566;50.006;36.180;2023-04-26T03:54:02;99075.06;;;9.91;72.10
54666;BME280;40566;50.006;36.180;2023-04-26T03:59:03;99075.38;;;10.07;71.71
54666;BME280;40566;50.006;36.180;2023-04-26T04:04:04;99073.13;;;10.21;71.14
54666;BME280;40566;50.006;36.180;2023-04-26T04:09:04;99074.56;;;10.28;71.13
54666;BME280;40566;50.006;36.180;2023-04-26T04:14:05;99085.28;;;10.43;70.77
54666;BME280;40566;50.006;36.180;2023-04-26T04:19:06;99084.75;;;10.57;70.59
54666;BME280;40566;50.006;36.180;2023-04-26T04:24:08;99084.09;;;10.74;69.84
54666;BME280;40566;50.006;36.180;2023-04-26T04:29:08;99085.19;;;10.90;69.31
54666;BME280;40566;50.006;36.180;2023-04-26T04:34:09;99102.63;;;11.07;68.80
54666;BME280;40566;50.006;36.180;2023-04-26T04:39:10;99100.50;;;11.17;68.52
54666;BME280;40566;50.006;36.180;2023-04-26T04:44:16;99095.59;;;11.31;67.97
54666;BME280;40566;50.006;36.180;2023-04-26T04:49:17;99103.81;;;11.41;67.50
54666;BME280;40566;50.006;36.180;2023-04-26T04:54:18;99116.91;;;11.58;67.22
54666;BME280;40566;50.006;36.180;2023-04-26T04:59:19;99116.47;;;11.69;66.75
54666;BME280;40566;50.006;36.180;2023-04-26T05:04:19;99127.03;;;11.85;66.22
54666;BME280;40566;50.006;36.180;2023-04-26T05:09:20;99128.19;;;11.98;66.01
54666;BME280;40566;50.006;36.180;2023-04-26T05:14:21;99125.09;;;12.10;65.80
54666;BME280;40566;50.006;36.180;2023-04-26T05:19:21;99130.91;;;12.35;65.38
54666;BME280;40566;50.006;36.180;2023-04-26T05:24:22;99137.63;;;12.58;64.49
54666;BME280;40566;50.006;36.180;2023-04-26T05:29:22;99134.41;;;12.72;64.21
54666;BME280;40566;50.006;36.180;2023-04-26T05:34:23;99137.06;;;12.89;63.15
54666;BME280;40566;50.006;36.180;2023-04-26T05:39:24;99132.75;;;13.07;62.29
54666;BME280;40566;50.006;36.180;2023-04-26T05:44:25;99129.28;;;13.25;62.00
54666;BME280;40566;50.006;36.180;2023-04-26T05:49:25;99129.03;;;13.49;61.03
54666;BME280;40566;50.006;36.180;2023-04-26T05:54:26;99129.53;;;13.73;60.42
54666;BME280;40566;50.006;36.180;2023-04-26T05:59:27;99121.72;;;13.91;58.89
54666;BME280;40566;50.006;36.180;2023-04-26T06:04:32;99138.81;;;14.12;58.25
54666;BME280;40566;50.006;36.180;2023-04-26T06:09:32;99133.53;;;14.29;56.62
54666;BME280;40566;50.006;36.180;2023-04-26T06:14:33;99126.22;;;14.54;54.75
54666;BME280;40566;50.006;36.180;2023-04-26T06:19:34;99140.69;;;14.75;53.61
54666;BME280;40566;50.006;36.180;2023-04-26T06:24:35;99139.47;;;14.97;53.42
54666;BME280;40566;50.006;36.180;2023-04-26T06:29:35;99144.50;;;15.16;52.95
54666;BME280;40566;50.006;36.180;2023-04-26T06:34:37;99144.41;;;15.33;52.35
54666;BME280;40566;50.006;36.180;2023-04-26T06:39:37;99157.50;;;15.62;50.97
54666;BME280;40566;50.006;36.180;2023-04-26T06:44:38;99168.09;;;15.75;49.73
54666;BME280;40566;50.006;36.180;2023-04-26T06:49:38;99163.19;;;15.84;48.41
54666;BME280;40566;50.006;36.180;2023-04-26T06:54:40;99158.94;;;15.98;47.53
54666;BME280;40566;50.006;36.180;2023-04-26T06:59:40;99170.13;;;16.14;46.62
54666;BME280;40566;50.006;36.180;2023-04-26T07:04:42;99178.91;;;16.28;45.27
54666;BME280;40566;50.006;36.180;2023-04-26T07:09:43;99189.13;;;16.31;43.88
54666;BME280;40566;50.006;36.180;2023-04-26T07:14:44;99186.81;;;16.40;43.35
54666;BME280;40566;50.006;36.180;2023-04-26T07:19:45;99197.81;;;16.45;42.67
54666;BME280;40566;50.006;36.180;2023-04-26T07:24:47;99169.75;;;16.63;42.53
54666;BME280;40566;50.006;36.180;2023-04-26T07:29:48;99197.91;;;16.73;41.98
54666;BME280;40566;50.006;36.180;2023-04-26T07:34:52;99195.00;;;16.77;42.08
54666;BME280;40566;50.006;36.180;2023-04-26T07:39:54;99193.59;;;16.86;42.16
54666;BME280;40566;50.006;36.180;2023-04-26T07:44:55;99194.13;;;17.05;41.78
54666;BME280;40566;50.006;36.180;2023-04-26T07:49:55;99208.25;;;17.30;40.93
54666;BME280;40566;50.006;36.180;2023-04-26T07:54:56;99210.75;;;17.32;41.36
54666;BME280;40566;50.006;36.180;2023-04-26T07:59:56;99208.91;;;17.34;42.12
54666;BME280;40566;50.006;36.180;2023-04-26T08:04:57;99204.25;;;17.52;41.84
54666;BME280;40566;50.006;36.180;2023-04-26T08:09:57;99198.91;;;17.53;41.95
54666;BME280;40566;50.006;36.180;2023-04-26T08:15:02;99188.69;;;17.63;41.60
54666;BME280;40566;50.006;36.180;2023-04-26T08:20:06;99197.47;;;17.62;41.52
54666;BME280;40566;50.006;36.180;2023-04-26T08:25:09;99186.38;;;17.71;42.21
54666;BME280;40566;50.006;36.180;2023-04-26T08:30:10;99196.81;;;17.98;41.56
54666;BME280;40566;50.006;36.180;2023-04-26T08:35:11;99193.78;;;18.30;41.14
54666;BME280;40566;50.006;36.180;2023-04-26T08:40:12;99199.25;;;18.27;41.19
54666;BME280;40566;50.006;36.180;2023-04-26T08:45:13;99195.06;;;18.37;40.71
54666;BME280;40566;50.006;36.180;2023-04-26T08:50:19;99180.81;;;18.54;40.26
54666;BME280;40566;50.006;36.180;2023-04-26T08:55:20;99191.63;;;18.74;40.16
54666;BME280;40566;50.006;36.180;2023-04-26T09:00:22;99188.94;;;18.88;39.30
54666;BME280;40566;50.006;36.180;2023-04-26T09:05:23;99186.06;;;19.04;38.99
54666;BME280;40566;50.006;36.180;2023-04-26T09:10:23;99183.09;;;19.33;38.54
54666;BME280;40566;50.006;36.180;2023-04-26T09:15:25;99165.63;;;19.45;37.66
54666;BME280;40566;50.006;36.180;2023-04-26T09:20:28;99173.00;;;19.39;37.32
54666;BME280;40566;50.006;36.180;2023-04-26T09:25:30;99179.06;;;19.40;36.92
54666;BME280;40566;50.006;36.180;2023-04-26T09:30:37;99158.44;;;19.71;36.51
54666;BME280;40566;50.006;36.180;2023-04-26T09:35:40;99162.72;;;20.07;36.44
54666;BME280;40566;50.006;36.180;2023-04-26T09:40:45;99158.25;;;23.65;31.22
54666;BME280;40566;50.006;36.180;2023-04-26T09:45:57;99157.47;;;25.05;29.98
54666;BME280;40566;50.006;36.180;2023-04-26T09:56:14;99165.78;;;30.04;24.77
54666;BME280;40566;50.006;36.180;2023-04-26T10:01:16;99165.13;;;27.50;27.55
54666;BME280;40566;50.006;36.180;2023-04-26T10:06:19;99167.00;;;24.70;31.24
54666;BME280;40566;50.006;36.180;2023-04-26T10:11:21;99168.06;;;24.12;31.88
54666;BME280;40566;50.006;36.180;2023-04-26T10:16:23;99159.03;;;26.48;28.67
54666;BME280;40566;50.006;36.180;2023-04-26T10:21:33;99163.56;;;29.55;25.44
54666;BME280;40566;50.006;36.180;2023-04-26T10:26:53;99157.75;;;30.93;24.33
54666;BME280;40566;50.006;36.180;2023-04-26T10:37:26;99169.00;;;32.38;23.15
54666;BME280;40566;50.006;36.180;2023-04-26T10:42:28;99165.59;;;26.62;29.18
54666;BME280;40566;50.006;36.180;2023-04-26T10:47:34;99163.81;;;29.45;25.41
54666;BME280;40566;50.006;36.180;2023-04-26T10:53:21;99160.34;;;28.42;26.57
54666;BME280;40566;50.006;36.180;2023-04-26T10:57:57;99171.06;;;25.82;29.47
54666;BME280;40566;50.006;36.180;2023-04-26T11:03:01;99159.00;;;25.61;29.58
54666;BME280;40566;50.006;36.180;2023-04-26T11:08:06;99160.16;;;24.77;29.85
54666;BME280;40566;50.006;36.180;2023-04-26T11:13:08;99167.56;;;23.79;31.66
54666;BME280;40566;50.006;36.180;2023-04-26T11:18:09;99158.13;;;23.86;31.38
54666;BME280;40566;50.006;36.180;2023-04-26T11:23:09;99146.84;;;25.32;29.26
54666;BME280;40566;50.006;36.180;2023-04-26T11:28:10;99158.06;;;24.99;29.78
54666;BME280;40566;50.006;36.180;2023-04-26T11:33:18;99142.59;;;24.48;30.56
54666;BME280;40566;50.006;36.180;2023-04-26T11:38:26;99158.19;;;25.43;28.33
54666;BME280;40566;50.006;36.180;2023-04-26T11:43:35;99152.72;;;25.08;28.95
54666;BME280;40566;50.006;36.180;2023-04-26T11:48:38;99144.22;;;23.45;30.87
54666;BME280;40566;50.006;36.180;2023-04-26T11:53:41;99146.75;;;23.27;31.62
54666;BME280;40566;50.006;36.180;2023-04-26T11:58:54;99143.69;;;23.12;31.34
54666;BME280;40566;50.006;36.180;2023-04-26T12:03:57;99137.41;;;22.44;32.42
54666;BME280;40566;50.006;36.180;2023-04-26T12:09:00;99124.78;;;23.66;30.74
54666;BME280;40566;50.006;36.180;2023-04-26T12:14:02;99124.81;;;24.68;29.74
54666;BME280;40566;50.006;36.180;2023-04-26T12:19:04;99125.59;;;25.68;28.37
54666;BME280;40566;50.006;36.180;2023-04-26T12:24:28;99128.81;;;23.80;30.53
54666;BME280;40566;50.006;36.180;2023-04-26T12:29:33;99130.06;;;23.56;30.76
54666;BME280;40566;50.006;36.180;2023-04-26T12:34:33;99129.75;;;23.69;30.57
54666;BME280;40566;50.006;36.180;2023-04-26T12:39:34;99115.53;;;23.89;30.29
54666;BME280;40566;50.006;36.180;2023-04-26T12:44:34;99126.91;;;24.92;29.16
54666;BME280;40566;50.006;36.180;2023-04-26T12:49:35;99123.44;;;27.75;25.94
54666;BME280;40566;50.006;36.180;2023-04-26T12:54:36;99124.78;;;27.55;26.26
54666;BME280;40566;50.006;36.180;2023-04-26T12:59:37;99123.69;;;26.31;27.62
54666;BME280;40566;50.006;36.180;2023-04-26T13:04:37;99107.16;;;25.85;28.09
54666;BME280;40566;50.006;36.180;2023-04-26T13:09:38;99118.06;;;25.56;28.42
54666;BME280;40566;50.006;36.180;2023-04-26T13:14:38;99122.34;;;24.67;29.31
54666;BME280;40566;50.006;36.180;2023-04-26T13:19:40;99111.72;;;23.45;30.48
54666;BME280;40566;50.006;36.180;2023-04-26T13:24:40;99121.41;;;22.95;30.83
54666;BME280;40566;50.006;36.180;2023-04-26T13:29:41;99117.34;;;22.72;30.92
54666;BME280;40566;50.006;36.180;2023-04-26T13:34:42;99110.41;;;22.71;30.86
54666;BME280;40566;50.006;36.180;2023-04-26T13:39:44;99113.28;;;22.58;31.14
54666;BME280;40566;50.006;36.180;2023-04-26T13:44:45;99111.97;;;22.33;31.32
54666;BME280;40566;50.006;36.180;2023-04-26T13:49:46;99117.66;;;22.28;31.47
54666;BME280;40566;50.006;36.180;2023-04-26T13:54:46;99114.78;;;22.10;31.70
54666;BME280;40566;50.006;36.180;2023-04-26T13:59:47;99105.88;;;21.81;32.37
54666;BME280;40566;50.006;36.180;2023-04-26T14:04:47;99110.50;;;21.46;32.78
54666;BME280;40566;50.006;36.180;2023-04-26T14:09:49;99109.25;;;21.29;32.76
54666;BME280;40566;50.006;36.180;2023-04-26T14:14:50;99110.72;;;21.22;32.92
54666;BME280;40566;50.006;36.180;2023-04-26T14:19:54;99112.53;;;21.22;33.11
54666;BME280;40566;50.006;36.180;2023-04-26T14:24:54;99110.47;;;21.25;33.10
54666;BME280;40566;50.006;36.180;2023-04-26T14:29:55;99100.78;;;21.26;32.95
54666;BME280;40566;50.006;36.180;2023-04-26T14:34:56;99103.84;;;21.10;33.38
54666;BME280;40566;50.006;36.180;2023-04-26T14:39:56;99103.75;;;21.00;33.78
54666;BME280;40566;50.006;36.180;2023-04-26T14:44:57;99099.59;;;20.97;33.71
54666;BME280;40566;50.006;36.180;2023-04-26T14:49:58;99111.31;;;20.93;33.60
54666;BME280;40566;50.006;36.180;2023-04-26T14:54:58;99106.47;;;20.77;33.61
54666;BME280;40566;50.006;36.180;2023-04-26T14:59:59;99115.31;;;20.54;34.33
54666;BME280;40566;50.006;36.180;2023-04-26T15:05:06;99098.59;;;20.44;34.41
54666;BME280;40566;50.006;36.180;2023-04-26T15:10:07;99109.25;;;20.31;34.84
54666;BME280;40566;50.006;36.180;2023-04-26T15:15:08;99109.50;;;20.16;34.92
54666;BME280;40566;50.006;36.180;2023-04-26T15:20:09;99110.19;;;20.07;35.53
54666;BME280;40566;50.006;36.180;2023-04-26T15:25:10;99107.44;;;19.97;35.50
54666;BME280;40566;50.006;36.180;2023-04-26T15:30:11;99111.84;;;19.86;35.74
54666;BME280;40566;50.006;36.180;2023-04-26T15:35:12;99113.72;;;19.72;36.27
54666;BME280;40566;50.006;36.180;2023-04-26T15:40:13;99115.81;;;19.56;36.19
54666;BME280;40566;50.006;36.180;2023-04-26T15:45:14;99114.94;;;19.44;36.55
54666;BME280;40566;50.006;36.180;2023-04-26T15:50:14;99115.50;;;19.36;36.70
54666;BME280;40566;50.006;36.180;2023-04-26T15:55:15;99121.88;;;19.21;36.72
54666;BME280;40566;50.006;36.180;2023-04-26T16:00:16;99126.13;;;19.11;36.77
54666;BME280;40566;50.006;36.180;2023-04-26T16:05:17;99134.91;;;18.98;37.02
54666;BME280;40566;50.006;36.180;2023-04-26T16:10:17;99139.25;;;18.87;37.10
54666;BME280;40566;50.006;36.180;2023-04-26T16:15:18;99139.97;;;18.76;37.71
54666;BME280;40566;50.006;36.180;2023-04-26T16:20:19;99146.19;;;18.62;37.56
54666;BME280;40566;50.006;36.180;2023-04-26T16:25:19;99153.25;;;18.49;37.98
54666;BME280;40566;50.006;36.180;2023-04-26T16:30:21;99150.88;;;18.33;37.97
54666;BME280;40566;50.006;36.180;2023-04-26T16:35:22;99161.44;;;18.18;38.43
54666;BME280;40566;50.006;36.180;2023-04-26T16:40:23;99168.47;;;18.05;39.10
54666;BME280;40566;50.006;36.180;2023-04-26T16:45:24;99168.47;;;17.92;39.05
54666;BME280;40566;50.006;36.180;2023-04-26T16:50:25;99171.22;;;17.76;39.87
54666;BME280;40566;50.006;36.180;2023-04-26T16:55:26;99181.06;;;17.60;40.48
54666;BME280;40566;50.006;36.180;2023-04-26T17:00:26;99176.72;;;17.46;40.25
54666;BME280;40566;50.006;36.180;2023-04-26T17:05:27;99186.47;;;17.30;40.76
54666;BME280;40566;50.006;36.180;2023-04-26T17:10:31;99180.19;;;17.19;41.10
54666;BME280;40566;50.006;36.180;2023-04-26T17:15:33;99188.16;;;17.03;40.99
54666;BME280;40566;50.006;36.180;2023-04-26T17:20:34;99196.03;;;16.89;41.27
54666;BME280;40566;50.006;36.180;2023-04-26T17:25:35;99199.41;;;16.77;41.76
54666;BME280;40566;50.006;36.180;2023-04-26T17:30:35;99204.72;;;16.61;41.89
54666;BME280;40566;50.006;36.180;2023-04-26T17:35:36;99201.09;;;16.49;42.01
54666;BME280;40566;50.006;36.180;2023-04-26T17:40:36;99218.34;;;16.37;42.84
54666;BME280;40566;50.006;36.180;2023-04-26T17:45:37;99222.31;;;16.29;42.95
54666;BME280;40566;50.006;36.180;2023-04-26T17:50:38;99225.31;;;16.22;43.26
54666;BME280;40566;50.006;36.180;2023-04-26T17:55:39;99216.19;;;16.15;43.13
54666;BME280;40566;50.006;36.180;2023-04-26T18:00:40;99213.06;;;16.09;42.88
54666;BME280;40566;50.006;36.180;2023-04-26T18:05:40;99220.22;;;16.05;43.29
54666;BME280;40566;50.006;36.180;2023-04-26T18:10:44;99223.03;;;16.02;43.19
54666;BME280;40566;50.006;36.180;2023-04-26T18:15:44;99216.50;;;15.95;43.25
54666;BME280;40566;50.006;36.180;2023-04-26T18:20:45;99216.69;;;15.92;43.80
54666;BME280;40566;50.006;36.180;2023-04-26T18:25:46;99213.50;;;15.86;43.95
54666;BME280;40566;50.006;36.180;2023-04-26T18:30:46;99212.16;;;15.79;43.95
54666;BME280;40566;50.006;36.180;2023-04-26T18:35:48;99211.06;;;15.67;44.17
54666;BME280;40566;50.006;36.180;2023-04-26T18:40:49;99217.00;;;15.55;44.66
54666;BME280;40566;50.006;36.180;2023-04-26T18:45:50;99228.78;;;15.46;44.44
54666;BME280;40566;50.006;36.180;2023-04-26T18:50:52;99212.91;;;15.35;45.05
54666;BME280;40566;50.006;36.180;2023-04-26T18:55:52;99218.63;;;15.26;44.94
54666;BME280;40566;50.006;36.180;2023-04-26T19:00:54;99223.34;;;15.19;45.28
54666;BME280;40566;50.006;36.180;2023-04-26T19:05:55;99214.94;;;15.14;45.43
54666;BME280;40566;50.006;36.180;2023-04-26T19:10:56;99221.16;;;15.12;45.58
54666;BME280;40566;50.006;36.180;2023-04-26T19:15:56;99223.84;;;15.10;45.78
54666;BME280;40566;50.006;36.180;2023-04-26T19:21:07;99217.97;;;15.06;46.40
54666;BME280;40566;50.006;36.180;2023-04-26T19:26:09;99211.41;;;14.99;46.42
54666;BME280;40566;50.006;36.180;2023-04-26T19:31:11;99224.66;;;14.95;46.55
54666;BME280;40566;50.006;36.180;2023-04-26T19:36:12;99220.66;;;14.89;46.88
54666;BME280;40566;50.006;36.180;2023-04-26T19:41:12;99220.66;;;14.89;46.92
54666;BME280;40566;50.006;36.180;2023-04-26T19:46:13;99216.44;;;14.86;47.05
54666;BME280;40566;50.006;36.180;2023-04-26T19:51:15;99212.84;;;14.89;47.51
54666;BME280;40566;50.006;36.180;2023-04-26T19:56:16;99218.63;;;14.94;47.31
54666;BME280;40566;50.006;36.180;2023-04-26T20:01:16;99212.59;;;14.94;47.41
54666;BME280;40566;50.006;36.180;2023-04-26T20:06:17;99216.03;;;14.94;47.74
54666;BME280;40566;50.006;36.180;2023-04-26T20:11:18;99221.09;;;14.97;48.28
54666;BME280;40566;50.006;36.180;2023-04-26T20:16:19;99218.47;;;14.97;48.31
54666;BME280;40566;50.006;36.180;2023-04-26T20:21:19;99216.03;;;14.94;48.39
54666;BME280;40566;50.006;36.180;2023-04-26T20:26:20;99222.50;;;14.87;48.45
54666;BME280;40566;50.006;36.180;2023-04-26T20:31:21;99220.13;;;14.82;49.00
54666;BME280;40566;50.006;36.180;2023-04-26T20:36:21;99215.19;;;14.78;48.92
54666;BME280;40566;50.006;36.180;2023-04-26T20:41:22;99218.69;;;14.77;48.89
54666;BME280;40566;50.006;36.180;2023-04-26T20:46:22;99226.84;;;14.71;49.26
54666;BME280;40566;50.006;36.180;2023-04-26T20:51:23;99225.09;;;14.71;49.30
54666;BME280;40566;50.006;36.180;2023-04-26T20:56:24;99230.31;;;14.71;49.34
54666;BME280;40566;50.006;36.180;2023-04-26T21:01:24;99234.56;;;14.72;49.26
54666;BME280;40566;50.006;36.180;2023-04-26T21:06:25;99227.00;;;14.67;49.75
54666;BME280;40566;50.006;36.180;2023-04-26T21:11:26;99230.72;;;14.63;49.63
54666;BME280;40566;50.006;36.180;2023-04-26T21:16:27;99226.59;;;14.59;50.16
54666;BME280;40566;50.006;36.180;2023-04-26T21:21:27;99226.78;;;14.55;49.86
54666;BME280;40566;50.006;36.180;2023-04-26T21:26:28;99216.53;;;14.52;50.15
54666;BME280;40566;50.006;36.180;2023-04-26T21:31:29;99224.56;;;14.47;50.16
54666;BME280;40566;50.006;36.180;2023-04-26T21:36:29;99221.53;;;14.39;50.42
54666;BME280;40566;50.006;36.180;2023-04-26T21:41:30;99222.00;;;14.29;50.45
54666;BME280;40566;50.006;36.180;2023-04-26T21:46:31;99221.56;;;14.21;50.73
54666;BME280;40566;50.006;36.180;2023-04-26T21:51:31;99227.25;;;14.12;50.48
54666;BME280;40566;50.006;36.180;2023-04-26T21:56:32;99235.19;;;14.09;50.70
54666;BME280;40566;50.006;36.180;2023-04-26T22:01:33;99239.94;;;14.01;50.87
54666;BME280;40566;50.006;36.180;2023-04-26T22:06:33;99243.75;;;13.94;50.78
54666;BME280;40566;50.006;36.180;2023-04-26T22:11:34;99256.94;;;13.91;51.02
54666;BME280;40566;50.006;36.180;2023-04-26T22:16:35;99250.34;;;13.83;50.94
54666;BME280;40566;50.006;36.180;2023-04-26T22:21:35;99248.94;;;13.76;50.82
54666;BME280;40566;50.006;36.180;2023-04-26T22:26:36;99247.56;;;13.69;50.81
54666;BME280;40566;50.006;36.180;2023-04-26T22:31:36;99245.88;;;13.68;50.95
54666;BME280;40566;50.006;36.180;2023-04-26T22:36:38;99243.28;;;13.68;50.93
54666;BME280;40566;50.006;36.180;2023-04-26T22:41:39;99246.75;;;13.68;51.20
54666;BME280;40566;50.006;36.180;2023-04-26T22:46:39;99239.72;;;13.71;51.29
54666;BME280;40566;50.006;36.180;2023-04-26T22:51:40;99227.63;;;13.69;51.33
54666;BME280;40566;50.006;36.180;2023-04-26T22:56:41;99228.44;;;13.70;51.45
54666;BME280;40566;50.006;36.180;2023-04-26T23:01:41;99228.75;;;13.64;51.77
54666;BME280;40566;50.006;36.180;2023-04-26T23:06:42;99216.69;;;13.63;51.68
54666;BME280;40566;50.006;36.180;2023-04-26T23:11:42;99215.00;;;13.62;51.78
54666;BME280;40566;50.006;36.180;2023-04-26T23:16:43;99213.47;;;13.58;51.72
54666;BME280;40566;50.006;36.180;2023-04-26T23:21:45;99219.66;;;13.55;51.88
54666;BME280;40566;50.006;36.180;2023-04-26T23:26:45;99216.38;;;13.52;52.01
54666;BME280;40566;50.006;36.180;2023-04-26T23:31:46;99224.28;;;13.48;52.39
54666;BME280;40566;50.006;36.180;2023-04-26T23:36:46;99215.13;;;13.41;52.25
54666;BME280;40566;50.006;36.180;2023-04-26T23:41:47;99221.53;;;13.34;52.42
54666;BME280;40566;50.006;36.180;2023-04-26T23:46:47;99215.94;;;13.23;52.56
54666;BME280;40566;50.006;36.180;2023-04-26T23:51:48;99217.19;;;13.16;52.57
54666;BME280;40566;50.006;36.180;2023-04-26T23:56:49;99216.75;;;13.06;52.69
